sensor_id;sensor_type;location;lat;lon;timestamp;P1;P2;P0
44045;PMS7003;29709;52.396;16.796;2024-01-30T00:02:14;38;29;19
44045;PMS7003;29709;52.396;16.796;2024-01-30T00:05:28;33;30;19
44045;PMS7003;29709;52.396;16.796;2024-01-30T00:08:41;34;28;19
44045;PMS7003;29709;52.396;16.796;2024-01-30T00:11:55;34;29;19
44045;PMS7003;29709;52.396;16.796;2024-01-30T00:15:08;35;29;20
44045;PMS7003;29709;52.396;16.796;2024-01-30T00:18:23;35;28;20
44045;PMS7003;29709;52.396;16.796;2024-01-30T00:21:36;34;28;19
44045;PMS7003;29709;52.396;16.796;2024-01-30T00:24:49;36;28;18
44045;PMS7003;29709;52.396;16.796;2024-01-30T00:28:02;31;24;15
44045;PMS7003;29709;52.396;16.796;2024-01-30T00:31:16;33;27;17
44045;PMS7003;29709;52.396;16.796;2024-01-30T00:34:29;30;23;14
44045;PMS7003;29709;52.396;16.796;2024-01-30T00:37:42;36;26;17
44045;PMS7003;29709;52.396;16.796;2024-01-30T00:40:55;34;29;18
44045;PMS7003;29709;52.396;16.796;2024-01-30T00:44:09;25;21;15
44045;PMS7003;29709;52.396;16.796;2024-01-30T00:47:22;23;22;16
44045;PMS7003;29709;52.396;16.796;2024-01-30T00:50:35;17;16;11
44045;PMS7003;29709;52.396;16.796;2024-01-30T00:53:48;26;22;15
44045;PMS7003;29709;52.396;16.796;2024-01-30T00:57:01;19;17;11
44045;PMS7003;29709;52.396;16.796;2024-01-30T01:00:15;12;10;7
44045;PMS7003;29709;52.396;16.796;2024-01-30T01:03:29;20;13;9
44045;PMS7003;29709;52.396;16.796;2024-01-30T01:06:43;19;16;11
44045;PMS7003;29709;52.396;16.796;2024-01-30T01:09:56;12;10;7
44045;PMS7003;29709;52.396;16.796;2024-01-30T01:13:10;13;13;10
44045;PMS7003;29709;52.396;16.796;2024-01-30T01:16:23;17;15;11
44045;PMS7003;29709;52.396;16.796;2024-01-30T01:19:36;15;13;8
44045;PMS7003;29709;52.396;16.796;2024-01-30T01:22:49;11;10;8
44045;PMS7003;29709;52.396;16.796;2024-01-30T01:26:02;20;18;11
44045;PMS7003;29709;52.396;16.796;2024-01-30T01:29:16;16;13;11
44045;PMS7003;29709;52.396;16.796;2024-01-30T01:32:29;17;14;10
44045;PMS7003;29709;52.396;16.796;2024-01-30T01:35:43;16;13;9
44045;PMS7003;29709;52.396;16.796;2024-01-30T01:38:56;19;15;11
44045;PMS7003;29709;52.396;16.796;2024-01-30T01:42:09;17;15;10
44045;PMS7003;29709;52.396;16.796;2024-01-30T01:45:22;16;13;9
44045;PMS7003;29709;52.396;16.796;2024-01-30T01:48:36;14;11;9
44045;PMS7003;29709;52.396;16.796;2024-01-30T01:51:53;10;9;7
44045;PMS7003;29709;52.396;16.796;2024-01-30T01:55:12;10;9;7
44045;PMS7003;29709;52.396;16.796;2024-01-30T01:58:27;13;10;7
44045;PMS7003;29709;52.396;16.796;2024-01-30T02:01:42;13;10;7
44045;PMS7003;29709;52.396;16.796;2024-01-30T02:04:56;12;11;7
44045;PMS7003;29709;52.396;16.796;2024-01-30T02:08:10;14;11;7
44045;PMS7003;29709;52.396;16.796;2024-01-30T02:11:24;12;10;7
44045;PMS7003;29709;52.396;16.796;2024-01-30T02:14:46;13;11;7
44045;PMS7003;29709;52.396;16.796;2024-01-30T02:17:59;12;10;7
44045;PMS7003;29709;52.396;16.796;2024-01-30T02:21:15;4;3;2
44045;PMS7003;29709;52.396;16.796;2024-01-30T02:24:28;10;9;6
44045;PMS7003;29709;52.396;16.796;2024-01-30T02:27:42;11;10;8
44045;PMS7003;29709;52.396;16.796;2024-01-30T02:30:55;11;7;5
44045;PMS7003;29709;52.396;16.796;2024-01-30T02:34:09;17;14;8
44045;PMS7003;29709;52.396;16.796;2024-01-30T02:37:22;11;11;7
44045;PMS7003;29709;52.396;16.796;2024-01-30T02:40:35;13;13;9
44045;PMS7003;29709;52.396;16.796;2024-01-30T02:43:48;13;11;8
44045;PMS7003;29709;52.396;16.796;2024-01-30T02:47:02;6;6;4
44045;PMS7003;29709;52.396;16.796;2024-01-30T02:57:15;14;10;7
44045;PMS7003;29709;52.396;16.796;2024-01-30T03:04:10;10;8;6
44045;PMS7003;29709;52.396;16.796;2024-01-30T03:07:28;9;8;6
44045;PMS7003;29709;52.396;16.796;2024-01-30T03:10:48;8;7;5
44045;PMS7003;29709;52.396;16.796;2024-01-30T03:14:02;9;7;6
44045;PMS7003;29709;52.396;16.796;2024-01-30T03:17:17;10;8;5
44045;PMS7003;29709;52.396;16.796;2024-01-30T03:20:33;9;8;7
44045;PMS7003;29709;52.396;16.796;2024-01-30T03:23:46;9;7;6
44045;PMS7003;29709;52.396;16.796;2024-01-30T03:30:20;10;7;5
44045;PMS7003;29709;52.396;16.796;2024-01-30T03:33:36;8;7;5
44045;PMS7003;29709;52.396;16.796;2024-01-30T03:36:53;10;8;6
44045;PMS7003;29709;52.396;16.796;2024-01-30T03:40:08;8;6;5
44045;PMS7003;29709;52.396;16.796;2024-01-30T03:43:22;9;9;7
44045;PMS7003;29709;52.396;16.796;2024-01-30T03:46:35;11;9;7
44045;PMS7003;29709;52.396;16.796;2024-01-30T03:49:48;8;8;5
44045;PMS7003;29709;52.396;16.796;2024-01-30T03:53:03;12;7;5
44045;PMS7003;29709;52.396;16.796;2024-01-30T03:56:17;8;8;5
44045;PMS7003;29709;52.396;16.796;2024-01-30T03:59:36;8;7;5
44045;PMS7003;29709;52.396;16.796;2024-01-30T04:03:07;8;8;5
44045;PMS7003;29709;52.396;16.796;2024-01-30T04:06:37;9;9;6
44045;PMS7003;29709;52.396;16.796;2024-01-30T04:09:51;8;6;5
44045;PMS7003;29709;52.396;16.796;2024-01-30T04:13:28;9;6;4
44045;PMS7003;29709;52.396;16.796;2024-01-30T04:16:52;10;8;5
44045;PMS7003;29709;52.396;16.796;2024-01-30T04:20:06;8;6;5
44045;PMS7003;29709;52.396;16.796;2024-01-30T04:23:19;7;6;4
44045;PMS7003;29709;52.396;16.796;2024-01-30T04:26:33;9;9;6
44045;PMS7003;29709;52.396;16.796;2024-01-30T04:29:47;12;9;6
44045;PMS7003;29709;52.396;16.796;2024-01-30T04:33:01;15;11;8
44045;PMS7003;29709;52.396;16.796;2024-01-30T04:36:16;12;11;8
44045;PMS7003;29709;52.396;16.796;2024-01-30T04:39:38;8;7;4
44045;PMS7003;29709;52.396;16.796;2024-01-30T04:42:55;12;10;6
44045;PMS7003;29709;52.396;16.796;2024-01-30T04:46:11;7;6;5
44045;PMS7003;29709;52.396;16.796;2024-01-30T04:49:25;8;6;4
44045;PMS7003;29709;52.396;16.796;2024-01-30T04:52:40;17;12;8
44045;PMS7003;29709;52.396;16.796;2024-01-30T04:55:57;19;16;11
44045;PMS7003;29709;52.396;16.796;2024-01-30T05:05:50;9;8;5
44045;PMS7003;29709;52.396;16.796;2024-01-30T05:09:07;11;10;8
44045;PMS7003;29709;52.396;16.796;2024-01-30T05:12:22;9;9;7
44045;PMS7003;29709;52.396;16.796;2024-01-30T05:15:35;12;10;7
44045;PMS7003;29709;52.396;16.796;2024-01-30T05:18:49;10;10;7
44045;PMS7003;29709;52.396;16.796;2024-01-30T05:22:04;11;9;7
44045;PMS7003;29709;52.396;16.796;2024-01-30T05:25:17;11;8;5
44045;PMS7003;29709;52.396;16.796;2024-01-30T05:28:33;16;13;9
44045;PMS7003;29709;52.396;16.796;2024-01-30T05:31:46;3;3;1
44045;PMS7003;29709;52.396;16.796;2024-01-30T05:34:59;11;8;6
44045;PMS7003;29709;52.396;16.796;2024-01-30T05:38:15;8;7;4
44045;PMS7003;29709;52.396;16.796;2024-01-30T05:41:29;17;15;10
44045;PMS7003;29709;52.396;16.796;2024-01-30T05:44:43;14;11;8
44045;PMS7003;29709;52.396;16.796;2024-01-30T05:47:56;12;8;6
44045;PMS7003;29709;52.396;16.796;2024-01-30T05:51:10;11;8;4
44045;PMS7003;29709;52.396;16.796;2024-01-30T05:54:23;7;5;4
44045;PMS7003;29709;52.396;16.796;2024-01-30T05:57:36;6;5;2
44045;PMS7003;29709;52.396;16.796;2024-01-30T06:04:18;14;8;5
44045;PMS7003;29709;52.396;16.796;2024-01-30T06:07:32;14;10;7
44045;PMS7003;29709;52.396;16.796;2024-01-30T06:10:46;12;10;8
44045;PMS7003;29709;52.396;16.796;2024-01-30T06:14:00;13;11;8
44045;PMS7003;29709;52.396;16.796;2024-01-30T06:17:15;14;14;11
44045;PMS7003;29709;52.396;16.796;2024-01-30T06:20:29;10;8;7
44045;PMS7003;29709;52.396;16.796;2024-01-30T06:23:43;8;7;6
44045;PMS7003;29709;52.396;16.796;2024-01-30T06:26:58;10;6;4
44045;PMS7003;29709;52.396;16.796;2024-01-30T06:30:12;11;9;7
44045;PMS7003;29709;52.396;16.796;2024-01-30T06:33:26;11;11;8
44045;PMS7003;29709;52.396;16.796;2024-01-30T06:40:08;16;11;6
44045;PMS7003;29709;52.396;16.796;2024-01-30T06:43:29;10;8;6
44045;PMS7003;29709;52.396;16.796;2024-01-30T06:50:03;5;5;1
44045;PMS7003;29709;52.396;16.796;2024-01-30T06:53:20;12;11;8
44045;PMS7003;29709;52.396;16.796;2024-01-30T06:56:37;15;14;9
44045;PMS7003;29709;52.396;16.796;2024-01-30T06:59:50;9;7;4
44045;PMS7003;29709;52.396;16.796;2024-01-30T07:06:44;12;10;6
44045;PMS7003;29709;52.396;16.796;2024-01-30T07:09:59;29;24;16
44045;PMS7003;29709;52.396;16.796;2024-01-30T07:13:39;47;38;25
44045;PMS7003;29709;52.396;16.796;2024-01-30T07:16:53;23;21;15
44045;PMS7003;29709;52.396;16.796;2024-01-30T07:20:06;16;13;8
44045;PMS7003;29709;52.396;16.796;2024-01-30T07:27:03;9;8;6
44045;PMS7003;29709;52.396;16.796;2024-01-30T07:33:38;9;7;6
44045;PMS7003;29709;52.396;16.796;2024-01-30T07:40:26;9;8;5
44045;PMS7003;29709;52.396;16.796;2024-01-30T07:43:56;12;9;6
44045;PMS7003;29709;52.396;16.796;2024-01-30T07:47:09;13;10;8
44045;PMS7003;29709;52.396;16.796;2024-01-30T07:50:23;13;12;7
44045;PMS7003;29709;52.396;16.796;2024-01-30T07:53:36;21;20;13
44045;PMS7003;29709;52.396;16.796;2024-01-30T07:56:49;15;13;9
44045;PMS7003;29709;52.396;16.796;2024-01-30T08:00:03;18;15;11
44045;PMS7003;29709;52.396;16.796;2024-01-30T08:03:21;24;17;12
44045;PMS7003;29709;52.396;16.796;2024-01-30T08:06:34;24;22;15
44045;PMS7003;29709;52.396;16.796;2024-01-30T08:09:48;27;25;17
44045;PMS7003;29709;52.396;16.796;2024-01-30T08:13:01;15;10;6
44045;PMS7003;29709;52.396;16.796;2024-01-30T08:16:14;28;25;17
44045;PMS7003;29709;52.396;16.796;2024-01-30T08:19:28;20;19;12
44045;PMS7003;29709;52.396;16.796;2024-01-30T08:22:41;13;10;3
44045;PMS7003;29709;52.396;16.796;2024-01-30T08:25:54;30;21;15
44045;PMS7003;29709;52.396;16.796;2024-01-30T08:29:09;23;20;14
44045;PMS7003;29709;52.396;16.796;2024-01-30T08:32:22;16;12;7
44045;PMS7003;29709;52.396;16.796;2024-01-30T08:35:36;10;10;7
44045;PMS7003;29709;52.396;16.796;2024-01-30T08:38:50;19;16;11
44045;PMS7003;29709;52.396;16.796;2024-01-30T08:42:04;11;7;5
44045;PMS7003;29709;52.396;16.796;2024-01-30T08:45:17;8;7;5
44045;PMS7003;29709;52.396;16.796;2024-01-30T08:48:32;7;7;4
44045;PMS7003;29709;52.396;16.796;2024-01-30T08:51:45;8;7;6
44045;PMS7003;29709;52.396;16.796;2024-01-30T08:55:00;4;3;2
44045;PMS7003;29709;52.396;16.796;2024-01-30T08:58:13;7;6;4
44045;PMS7003;29709;52.396;16.796;2024-01-30T09:01:34;5;4;3
44045;PMS7003;29709;52.396;16.796;2024-01-30T09:04:47;9;9;5
44045;PMS7003;29709;52.396;16.796;2024-01-30T09:08:00;7;6;4
44045;PMS7003;29709;52.396;16.796;2024-01-30T09:11:14;9;8;6
44045;PMS7003;29709;52.396;16.796;2024-01-30T09:14:29;13;10;8
44045;PMS7003;29709;52.396;16.796;2024-01-30T09:17:42;10;9;6
44045;PMS7003;29709;52.396;16.796;2024-01-30T09:20:55;9;7;5
44045;PMS7003;29709;52.396;16.796;2024-01-30T09:24:10;8;6;5
44045;PMS7003;29709;52.396;16.796;2024-01-30T09:27:23;8;6;4
44045;PMS7003;29709;52.396;16.796;2024-01-30T09:30:37;6;5;4
44045;PMS7003;29709;52.396;16.796;2024-01-30T09:33:50;8;7;6
44045;PMS7003;29709;52.396;16.796;2024-01-30T09:37:07;10;9;6
44045;PMS7003;29709;52.396;16.796;2024-01-30T09:40:20;9;7;5
44045;PMS7003;29709;52.396;16.796;2024-01-30T09:43:34;2;1;0
44045;PMS7003;29709;52.396;16.796;2024-01-30T09:46:47;6;5;3
44045;PMS7003;29709;52.396;16.796;2024-01-30T09:50:02;8;5;3
44045;PMS7003;29709;52.396;16.796;2024-01-30T09:53:18;10;8;7
44045;PMS7003;29709;52.396;16.796;2024-01-30T09:56:32;9;6;4
44045;PMS7003;29709;52.396;16.796;2024-01-30T09:59:45;9;7;6
44045;PMS7003;29709;52.396;16.796;2024-01-30T10:03:03;11;6;5
44045;PMS7003;29709;52.396;16.796;2024-01-30T10:06:18;8;7;6
44045;PMS7003;29709;52.396;16.796;2024-01-30T10:09:34;8;7;3
44045;PMS7003;29709;52.396;16.796;2024-01-30T10:12:48;6;6;4
44045;PMS7003;29709;52.396;16.796;2024-01-30T10:16:02;6;6;4
44045;PMS7003;29709;52.396;16.796;2024-01-30T10:19:18;5;3;2
44045;PMS7003;29709;52.396;16.796;2024-01-30T10:22:31;8;7;4
44045;PMS7003;29709;52.396;16.796;2024-01-30T10:25:45;8;7;5
44045;PMS7003;29709;52.396;16.796;2024-01-30T10:28:59;8;6;4
44045;PMS7003;29709;52.396;16.796;2024-01-30T10:32:12;6;6;4
44045;PMS7003;29709;52.396;16.796;2024-01-30T10:35:26;9;9;7
44045;PMS7003;29709;52.396;16.796;2024-01-30T10:38:39;12;9;7
44045;PMS7003;29709;52.396;16.796;2024-01-30T10:41:56;7;7;4
44045;PMS7003;29709;52.396;16.796;2024-01-30T10:45:18;10;8;6
44045;PMS7003;29709;52.396;16.796;2024-01-30T10:48:32;13;8;4
44045;PMS7003;29709;52.396;16.796;2024-01-30T10:51:52;6;4;3
44045;PMS7003;29709;52.396;16.796;2024-01-30T10:55:06;5;2;1
44045;PMS7003;29709;52.396;16.796;2024-01-30T10:58:21;8;7;5
44045;PMS7003;29709;52.396;16.796;2024-01-30T11:01:35;8;4;3
44045;PMS7003;29709;52.396;16.796;2024-01-30T11:04:49;9;7;5
44045;PMS7003;29709;52.396;16.796;2024-01-30T11:08:13;7;5;4
44045;PMS7003;29709;52.396;16.796;2024-01-30T11:11:26;8;6;5
44045;PMS7003;29709;52.396;16.796;2024-01-30T11:14:39;7;7;5
44045;PMS7003;29709;52.396;16.796;2024-01-30T11:17:53;9;8;5
44045;PMS7003;29709;52.396;16.796;2024-01-30T11:21:06;4;3;2
44045;PMS7003;29709;52.396;16.796;2024-01-30T11:24:20;9;7;5
44045;PMS7003;29709;52.396;16.796;2024-01-30T11:27:36;8;6;4
44045;PMS7003;29709;52.396;16.796;2024-01-30T11:30:50;9;7;5
44045;PMS7003;29709;52.396;16.796;2024-01-30T11:34:04;7;7;5
44045;PMS7003;29709;52.396;16.796;2024-01-30T11:37:18;12;11;8
44045;PMS7003;29709;52.396;16.796;2024-01-30T11:40:34;13;10;5
44045;PMS7003;29709;52.396;16.796;2024-01-30T11:43:53;8;8;5
44045;PMS7003;29709;52.396;16.796;2024-01-30T11:47:06;9;9;6
44045;PMS7003;29709;52.396;16.796;2024-01-30T11:50:20;8;6;4
44045;PMS7003;29709;52.396;16.796;2024-01-30T11:53:34;9;8;7
44045;PMS7003;29709;52.396;16.796;2024-01-30T11:56:48;10;7;4
44045;PMS7003;29709;52.396;16.796;2024-01-30T12:00:01;8;7;5
44045;PMS7003;29709;52.396;16.796;2024-01-30T12:03:22;10;10;7
44045;PMS7003;29709;52.396;16.796;2024-01-30T12:06:35;9;6;4
44045;PMS7003;29709;52.396;16.796;2024-01-30T12:09:52;7;7;5
44045;PMS7003;29709;52.396;16.796;2024-01-30T12:13:07;3;1;0
44045;PMS7003;29709;52.396;16.796;2024-01-30T12:16:20;9;7;5
44045;PMS7003;29709;52.396;16.796;2024-01-30T12:19:34;7;5;4
44045;PMS7003;29709;52.396;16.796;2024-01-30T12:22:48;8;7;4
44045;PMS7003;29709;52.396;16.796;2024-01-30T12:26:03;7;7;5
44045;PMS7003;29709;52.396;16.796;2024-01-30T12:29:20;13;8;6
44045;PMS7003;29709;52.396;16.796;2024-01-30T12:32:38;9;7;5
44045;PMS7003;29709;52.396;16.796;2024-01-30T12:35:55;9;7;5
44045;PMS7003;29709;52.396;16.796;2024-01-30T12:39:12;8;5;4
44045;PMS7003;29709;52.396;16.796;2024-01-30T12:42:28;15;10;8
44045;PMS7003;29709;52.396;16.796;2024-01-30T12:45:41;5;5;4
44045;PMS7003;29709;52.396;16.796;2024-01-30T12:48:55;9;6;4
44045;PMS7003;29709;52.396;16.796;2024-01-30T12:52:08;9;6;5
44045;PMS7003;29709;52.396;16.796;2024-01-30T12:55:23;8;7;5
44045;PMS7003;29709;52.396;16.796;2024-01-30T12:58:40;8;6;4
44045;PMS7003;29709;52.396;16.796;2024-01-30T13:01:55;11;9;7
44045;PMS7003;29709;52.396;16.796;2024-01-30T13:05:09;4;3;1
44045;PMS7003;29709;52.396;16.796;2024-01-30T13:08:23;7;6;4
44045;PMS7003;29709;52.396;16.796;2024-01-30T13:11:36;7;6;4
44045;PMS7003;29709;52.396;16.796;2024-01-30T13:14:50;7;4;4
44045;PMS7003;29709;52.396;16.796;2024-01-30T13:18:03;8;7;6
44045;PMS7003;29709;52.396;16.796;2024-01-30T13:21:18;9;8;5
44045;PMS7003;29709;52.396;16.796;2024-01-30T13:24:32;11;7;5
44045;PMS7003;29709;52.396;16.796;2024-01-30T13:27:45;5;5;4
44045;PMS7003;29709;52.396;16.796;2024-01-30T13:30:59;8;8;5
44045;PMS7003;29709;52.396;16.796;2024-01-30T13:34:12;9;8;5
44045;PMS7003;29709;52.396;16.796;2024-01-30T13:37:26;8;4;3
44045;PMS7003;29709;52.396;16.796;2024-01-30T13:40:40;10;7;5
44045;PMS7003;29709;52.396;16.796;2024-01-30T13:43:53;8;6;4
44045;PMS7003;29709;52.396;16.796;2024-01-30T13:47:06;9;6;5
44045;PMS7003;29709;52.396;16.796;2024-01-30T13:50:20;11;10;7
44045;PMS7003;29709;52.396;16.796;2024-01-30T13:53:34;10;7;4
44045;PMS7003;29709;52.396;16.796;2024-01-30T13:56:47;10;8;7
44045;PMS7003;29709;52.396;16.796;2024-01-30T14:00:00;6;4;2
44045;PMS7003;29709;52.396;16.796;2024-01-30T14:03:14;11;8;6
44045;PMS7003;29709;52.396;16.796;2024-01-30T14:06:27;10;8;6
44045;PMS7003;29709;52.396;16.796;2024-01-30T14:09:41;9;7;5
44045;PMS7003;29709;52.396;16.796;2024-01-30T14:12:54;9;9;7
44045;PMS7003;29709;52.396;16.796;2024-01-30T14:16:10;10;8;5
44045;PMS7003;29709;52.396;16.796;2024-01-30T14:19:23;13;9;6
44045;PMS7003;29709;52.396;16.796;2024-01-30T14:22:37;8;5;3
44045;PMS7003;29709;52.396;16.796;2024-01-30T14:25:50;8;7;5
44045;PMS7003;29709;52.396;16.796;2024-01-30T14:29:05;8;6;5
44045;PMS7003;29709;52.396;16.796;2024-01-30T14:32:18;8;7;6
44045;PMS7003;29709;52.396;16.796;2024-01-30T14:35:31;10;8;5
44045;PMS7003;29709;52.396;16.796;2024-01-30T14:38:45;3;2;0
44045;PMS7003;29709;52.396;16.796;2024-01-30T14:41:58;4;4;3
44045;PMS7003;29709;52.396;16.796;2024-01-30T14:45:11;8;7;5
44045;PMS7003;29709;52.396;16.796;2024-01-30T14:48:25;9;6;5
44045;PMS7003;29709;52.396;16.796;2024-01-30T14:51:38;8;7;5
44045;PMS7003;29709;52.396;16.796;2024-01-30T14:54:51;8;7;4
44045;PMS7003;29709;52.396;16.796;2024-01-30T14:58:04;10;6;4
44045;PMS7003;29709;52.396;16.796;2024-01-30T15:01:18;5;3;3
44045;PMS7003;29709;52.396;16.796;2024-01-30T15:04:32;11;8;5
44045;PMS7003;29709;52.396;16.796;2024-01-30T15:07:45;9;9;6
44045;PMS7003;29709;52.396;16.796;2024-01-30T15:10:58;8;7;4
44045;PMS7003;29709;52.396;16.796;2024-01-30T15:14:12;9;8;5
44045;PMS7003;29709;52.396;16.796;2024-01-30T15:17:26;20;13;11
44045;PMS7003;29709;52.396;16.796;2024-01-30T15:20:39;17;15;10
44045;PMS7003;29709;52.396;16.796;2024-01-30T15:23:52;11;8;5
44045;PMS7003;29709;52.396;16.796;2024-01-30T15:27:05;16;12;9
44045;PMS7003;29709;52.396;16.796;2024-01-30T15:30:19;13;10;7
44045;PMS7003;29709;52.396;16.796;2024-01-30T15:33:33;10;9;7
44045;PMS7003;29709;52.396;16.796;2024-01-30T15:36:46;11;10;7
44045;PMS7003;29709;52.396;16.796;2024-01-30T15:40:00;13;12;9
44045;PMS7003;29709;52.396;16.796;2024-01-30T15:43:15;12;10;9
44045;PMS7003;29709;52.396;16.796;2024-01-30T15:46:28;14;12;9
44045;PMS7003;29709;52.396;16.796;2024-01-30T15:49:41;14;13;9
44045;PMS7003;29709;52.396;16.796;2024-01-30T15:52:54;15;12;9
44045;PMS7003;29709;52.396;16.796;2024-01-30T15:56:08;17;11;8
44045;PMS7003;29709;52.396;16.796;2024-01-30T15:59:21;14;10;8
44045;PMS7003;29709;52.396;16.796;2024-01-30T16:02:34;15;11;9
44045;PMS7003;29709;52.396;16.796;2024-01-30T16:05:47;14;11;8
44045;PMS7003;29709;52.396;16.796;2024-01-30T16:09:01;14;11;8
44045;PMS7003;29709;52.396;16.796;2024-01-30T16:12:16;11;9;7
44045;PMS7003;29709;52.396;16.796;2024-01-30T16:15:30;11;10;8
44045;PMS7003;29709;52.396;16.796;2024-01-30T16:18:43;13;10;7
44045;PMS7003;29709;52.396;16.796;2024-01-30T16:21:56;14;12;8
44045;PMS7003;29709;52.396;16.796;2024-01-30T16:25:10;17;14;11
44045;PMS7003;29709;52.396;16.796;2024-01-30T16:28:25;12;10;8
44045;PMS7003;29709;52.396;16.796;2024-01-30T16:31:39;19;14;10
44045;PMS7003;29709;52.396;16.796;2024-01-30T16:34:52;19;13;10
44045;PMS7003;29709;52.396;16.796;2024-01-30T16:38:06;18;17;11
44045;PMS7003;29709;52.396;16.796;2024-01-30T16:41:20;24;19;13
44045;PMS7003;29709;52.396;16.796;2024-01-30T16:44:34;21;19;12
44045;PMS7003;29709;52.396;16.796;2024-01-30T16:47:48;28;25;16
44045;PMS7003;29709;52.396;16.796;2024-01-30T16:51:01;24;21;14
44045;PMS7003;29709;52.396;16.796;2024-01-30T16:54:14;22;16;11
44045;PMS7003;29709;52.396;16.796;2024-01-30T16:57:28;27;20;13
44045;PMS7003;29709;52.396;16.796;2024-01-30T17:00:41;18;16;13
44045;PMS7003;29709;52.396;16.796;2024-01-30T17:03:54;18;14;7
44045;PMS7003;29709;52.396;16.796;2024-01-30T17:07:08;25;18;11
44045;PMS7003;29709;52.396;16.796;2024-01-30T17:10:21;19;15;9
44045;PMS7003;29709;52.396;16.796;2024-01-30T17:13:35;26;21;13
44045;PMS7003;29709;52.396;16.796;2024-01-30T17:20:38;13;10;7
44045;PMS7003;29709;52.396;16.796;2024-01-30T17:23:51;14;11;6
44045;PMS7003;29709;52.396;16.796;2024-01-30T17:27:05;12;9;6
44045;PMS7003;29709;52.396;16.796;2024-01-30T17:30:21;10;8;5
44045;PMS7003;29709;52.396;16.796;2024-01-30T17:33:36;11;9;7
44045;PMS7003;29709;52.396;16.796;2024-01-30T17:36:49;14;12;8
44045;PMS7003;29709;52.396;16.796;2024-01-30T17:43:30;13;9;7
44045;PMS7003;29709;52.396;16.796;2024-01-30T17:46:44;11;8;5
44045;PMS7003;29709;52.396;16.796;2024-01-30T17:50:01;12;10;6
44045;PMS7003;29709;52.396;16.796;2024-01-30T17:53:15;11;11;8
44045;PMS7003;29709;52.396;16.796;2024-01-30T17:56:28;16;14;9
44045;PMS7003;29709;52.396;16.796;2024-01-30T17:59:49;17;13;9
44045;PMS7003;29709;52.396;16.796;2024-01-30T18:03:05;15;13;9
44045;PMS7003;29709;52.396;16.796;2024-01-30T18:06:34;15;11;7
44045;PMS7003;29709;52.396;16.796;2024-01-30T18:09:51;21;16;10
44045;PMS7003;29709;52.396;16.796;2024-01-30T18:13:07;17;15;10
44045;PMS7003;29709;52.396;16.796;2024-01-30T18:16:25;18;14;9
44045;PMS7003;29709;52.396;16.796;2024-01-30T18:19:42;14;12;8
44045;PMS7003;29709;52.396;16.796;2024-01-30T18:22:59;13;9;7
44045;PMS7003;29709;52.396;16.796;2024-01-30T18:26:15;18;15;9
44045;PMS7003;29709;52.396;16.796;2024-01-30T18:29:40;19;14;9
44045;PMS7003;29709;52.396;16.796;2024-01-30T18:33:20;17;15;11
44045;PMS7003;29709;52.396;16.796;2024-01-30T18:36:40;20;13;7
44045;PMS7003;29709;52.396;16.796;2024-01-30T18:39:58;21;17;13
44045;PMS7003;29709;52.396;16.796;2024-01-30T18:43:12;22;16;12
44045;PMS7003;29709;52.396;16.796;2024-01-30T18:46:25;20;17;12
44045;PMS7003;29709;52.396;16.796;2024-01-30T18:49:39;25;22;15
44045;PMS7003;29709;52.396;16.796;2024-01-30T18:52:53;23;21;13
44045;PMS7003;29709;52.396;16.796;2024-01-30T18:56:06;29;22;15
44045;PMS7003;29709;52.396;16.796;2024-01-30T18:59:20;27;24;16
44045;PMS7003;29709;52.396;16.796;2024-01-30T19:02:33;21;18;12
44045;PMS7003;29709;52.396;16.796;2024-01-30T19:05:47;31;26;16
44045;PMS7003;29709;52.396;16.796;2024-01-30T19:09:02;29;24;16
44045;PMS7003;29709;52.396;16.796;2024-01-30T19:12:22;28;23;16
44045;PMS7003;29709;52.396;16.796;2024-01-30T19:15:35;30;22;15
44045;PMS7003;29709;52.396;16.796;2024-01-30T19:18:50;42;33;21
44045;PMS7003;29709;52.396;16.796;2024-01-30T19:22:04;37;29;20
44045;PMS7003;29709;52.396;16.796;2024-01-30T19:25:18;33;24;17
44045;PMS7003;29709;52.396;16.796;2024-01-30T19:28:31;25;22;15
44045;PMS7003;29709;52.396;16.796;2024-01-30T19:35:04;26;22;13
44045;PMS7003;29709;52.396;16.796;2024-01-30T19:38:19;24;22;16
44045;PMS7003;29709;52.396;16.796;2024-01-30T19:41:33;19;18;12
44045;PMS7003;29709;52.396;16.796;2024-01-30T19:44:50;20;18;12
44045;PMS7003;29709;52.396;16.796;2024-01-30T19:48:07;22;19;12
44045;PMS7003;29709;52.396;16.796;2024-01-30T19:51:21;17;17;11
44045;PMS7003;29709;52.396;16.796;2024-01-30T19:54:36;20;17;11
44045;PMS7003;29709;52.396;16.796;2024-01-30T19:57:54;25;22;13
44045;PMS7003;29709;52.396;16.796;2024-01-30T20:01:08;23;19;14
44045;PMS7003;29709;52.396;16.796;2024-01-30T20:04:24;22;20;12
44045;PMS7003;29709;52.396;16.796;2024-01-30T20:07:37;17;16;10
44045;PMS7003;29709;52.396;16.796;2024-01-30T20:10:52;17;16;12
44045;PMS7003;29709;52.396;16.796;2024-01-30T20:14:06;8;8;5
44045;PMS7003;29709;52.396;16.796;2024-01-30T20:17:19;17;16;11
44045;PMS7003;29709;52.396;16.796;2024-01-30T20:20:33;13;11;7
44045;PMS7003;29709;52.396;16.796;2024-01-30T20:23:46;19;14;9
44045;PMS7003;29709;52.396;16.796;2024-01-30T20:27:05;15;13;9
44045;PMS7003;29709;52.396;16.796;2024-01-30T20:30:19;14;13;9
44045;PMS7003;29709;52.396;16.796;2024-01-30T20:33:35;14;12;8
44045;PMS7003;29709;52.396;16.796;2024-01-30T20:36:50;16;12;9
44045;PMS7003;29709;52.396;16.796;2024-01-30T20:40:08;16;15;10
44045;PMS7003;29709;52.396;16.796;2024-01-30T20:43:21;15;12;8
44045;PMS7003;29709;52.396;16.796;2024-01-30T20:46:35;14;10;6
44045;PMS7003;29709;52.396;16.796;2024-01-30T20:49:48;16;11;9
44045;PMS7003;29709;52.396;16.796;2024-01-30T20:53:05;15;12;7
44045;PMS7003;29709;52.396;16.796;2024-01-30T20:56:21;15;13;11
44045;PMS7003;29709;52.396;16.796;2024-01-30T20:59:34;11;10;4
44045;PMS7003;29709;52.396;16.796;2024-01-30T21:02:47;13;12;9
44045;PMS7003;29709;52.396;16.796;2024-01-30T21:06:02;13;10;8
44045;PMS7003;29709;52.396;16.796;2024-01-30T21:09:15;13;10;8
44045;PMS7003;29709;52.396;16.796;2024-01-30T21:12:29;20;13;8
44045;PMS7003;29709;52.396;16.796;2024-01-30T21:15:43;6;6;5
44045;PMS7003;29709;52.396;16.796;2024-01-30T21:18:56;15;13;9
44045;PMS7003;29709;52.396;16.796;2024-01-30T21:25:30;12;9;6
44045;PMS7003;29709;52.396;16.796;2024-01-30T21:28:46;16;11;7
44045;PMS7003;29709;52.396;16.796;2024-01-30T21:38:51;15;11;7
44045;PMS7003;29709;52.396;16.796;2024-01-30T21:42:10;15;11;9
44045;PMS7003;29709;52.396;16.796;2024-01-30T21:45:30;15;13;10
44045;PMS7003;29709;52.396;16.796;2024-01-30T21:48:44;20;14;11
44045;PMS7003;29709;52.396;16.796;2024-01-30T21:51:57;16;11;9
44045;PMS7003;29709;52.396;16.796;2024-01-30T21:55:13;12;10;5
44045;PMS7003;29709;52.396;16.796;2024-01-30T21:58:32;16;15;11
44045;PMS7003;29709;52.396;16.796;2024-01-30T22:01:45;11;10;7
44045;PMS7003;29709;52.396;16.796;2024-01-30T22:04:58;12;10;7
44045;PMS7003;29709;52.396;16.796;2024-01-30T22:08:12;14;11;8